Time;durP1;ratioP1;P1;durP2;ratioP2;P2;SDS_P1;SDS_P2;PMS_P1;PMS_P2;Temp;Humidity;BMP_temperature;BMP_pressure;BME280_temperature;BME280_humidity;BME280_pressure;Samples;Min_cycle;Max_cycle;Signal;HPM_P1;HPM_P2
2021/06/09 00:01:52;;;;;;;33.75;24.38;;;;;;;;;;4986320;28;20082;-67
2021/06/09 00:04:18;;;;;;;32.90;24.92;;;;;;;;;;4988604;28;20429;-67
2021/06/09 00:06:44;;;;;;;33.83;24.25;;;;;;;;;;4988311;28;20046;-67
2021/06/09 00:09:10;;;;;;;30.75;24.08;;;;;;;;;;4988034;28;20637;-67
2021/06/09 00:11:36;;;;;;;28.52;22.92;;;;;;;;;;4985519;28;20492;-67
2021/06/09 00:14:03;;;;;;;33.17;24.30;;;;;;;;;;4991219;28;20126;-67
2021/06/09 00:16:30;;;;;;;31.40;23.98;;;;;;;;;;4984719;28;20105;-67
2021/06/09 00:18:56;;;;;;;36.22;25.58;;;;;;;;;;4986564;28;20080;-67
2021/06/09 00:21:22;;;;;;;33.92;25.45;;;;;;;;;;4988130;28;20030;-67
2021/06/09 00:23:48;;;;;;;35.00;25.75;;;;;;;;;;4988813;28;20030;-67
2021/06/09 00:26:17;;;;;;;34.00;25.35;;;;;;;;;;4986579;28;20026;-67
2021/06/09 00:28:45;;;;;;;33.03;26.10;;;;;;;;;;4988194;28;20031;-67
2021/06/09 00:31:11;;;;;;;31.95;25.65;;;;;;;;;;4988489;28;20026;-67
2021/06/09 00:33:37;;;;;;;36.28;26.60;;;;;;;;;;4988511;28;20034;-67
2021/06/09 00:36:03;;;;;;;34.10;25.50;;;;;;;;;;4989070;28;20022;-67
2021/06/09 00:38:29;;;;;;;34.90;24.50;;;;;;;;;;4986849;28;20088;-67
2021/06/09 00:40:57;;;;;;;30.65;23.40;;;;;;;;;;4989029;28;20044;-67
2021/06/09 00:43:25;;;;;;;29.85;22.13;;;;;;;;;;4987396;28;20023;-67
2021/06/09 00:45:58;;;;;;;32.38;23.63;;;;;;;;;;4986429;28;20034;-67
2021/06/09 00:48:27;;;;;;;33.60;23.65;;;;;;;;;;4985287;28;20116;-67
2021/06/09 00:50:54;;;;;;;33.85;22.88;;;;;;;;;;4984724;28;20106;-67
2021/06/09 00:53:34;;;;;;;35.78;23.55;;;;;;;;;;4988355;28;20096;-67
2021/06/09 00:56:06;;;;;;;32.05;23.55;;;;;;;;;;4997461;28;20030;-67
2021/06/09 00:58:32;;;;;;;30.50;22.90;;;;;;;;;;4987549;28;20022;-67
2021/06/09 01:00:59;;;;;;;30.70;23.48;;;;;;;;;;4987522;28;20038;-67
2021/06/09 01:03:26;;;;;;;34.85;23.67;;;;;;;;;;4988645;28;20056;-67
2021/06/09 01:05:52;;;;;;;32.33;22.25;;;;;;;;;;4985923;28;20026;-67
2021/06/09 01:08:19;;;;;;;29.20;20.08;;;;;;;;;;4985117;28;20042;-67
2021/06/09 01:10:47;;;;;;;27.08;21.13;;;;;;;;;;4985998;28;20485;-67
2021/06/09 01:13:14;;;;;;;30.77;21.20;;;;;;;;;;4998920;28;20497;-67
2021/06/09 01:15:40;;;;;;;26.75;19.77;;;;;;;;;;4988666;28;20045;-67
2021/06/09 01:18:06;;;;;;;26.02;19.25;;;;;;;;;;4985347;28;20088;-67
2021/06/09 01:20:33;;;;;;;26.80;19.92;;;;;;;;;;4986583;28;20030;-67
2021/06/09 01:22:59;;;;;;;25.98;20.70;;;;;;;;;;4988409;28;20022;-67
2021/06/09 01:25:26;;;;;;;30.83;20.80;;;;;;;;;;4985023;28;20155;-67
2021/06/09 01:27:52;;;;;;;29.20;20.10;;;;;;;;;;4985138;28;20034;-67
2021/06/09 01:30:19;;;;;;;30.52;21.05;;;;;;;;;;4985898;28;20030;-67
2021/06/09 01:32:45;;;;;;;28.38;21.23;;;;;;;;;;4985944;28;20071;-67
2021/06/09 01:35:11;;;;;;;29.17;21.15;;;;;;;;;;4986547;28;20036;-67
2021/06/09 01:37:37;;;;;;;29.00;20.75;;;;;;;;;;4987664;28;20034;-67
2021/06/09 01:40:06;;;;;;;30.17;19.98;;;;;;;;;;4988616;28;20022;-67
2021/06/09 01:42:32;;;;;;;28.58;20.25;;;;;;;;;;4987802;28;20550;-67
2021/06/09 01:44:58;;;;;;;29.10;20.17;;;;;;;;;;4988623;28;20022;-67
2021/06/09 01:47:24;;;;;;;31.10;20.48;;;;;;;;;;4985721;28;20072;-67
2021/06/09 01:49:51;;;;;;;29.13;21.52;;;;;;;;;;4984399;28;20027;-66
2021/06/09 01:52:20;;;;;;;28.70;19.33;;;;;;;;;;4987210;28;20034;-67
2021/06/09 01:54:47;;;;;;;29.13;19.60;;;;;;;;;;4987047;28;20026;-67
2021/06/09 01:57:15;;;;;;;26.63;18.90;;;;;;;;;;4986010;28;20088;-67
2021/06/09 01:59:42;;;;;;;27.35;18.42;;;;;;;;;;4987295;28;20689;-67
2021/06/09 02:02:09;;;;;;;27.90;18.63;;;;;;;;;;4987421;28;20560;-67
2021/06/09 02:04:35;;;;;;;25.33;17.10;;;;;;;;;;4987112;28;20023;-67
2021/06/09 02:07:01;;;;;;;26.13;17.40;;;;;;;;;;4986628;28;20026;-67
2021/06/09 02:09:27;;;;;;;24.13;16.92;;;;;;;;;;4995492;28;20058;-67
2021/06/09 02:11:53;;;;;;;24.60;16.90;;;;;;;;;;4985676;28;20026;-67
2021/06/09 02:14:20;;;;;;;26.38;18.05;;;;;;;;;;4988907;28;20141;-67
2021/06/09 02:16:47;;;;;;;25.38;18.15;;;;;;;;;;4985110;28;20038;-67
2021/06/09 02:19:13;;;;;;;27.48;18.63;;;;;;;;;;4984916;28;20049;-68
2021/06/09 02:21:41;;;;;;;25.10;17.58;;;;;;;;;;4988077;28;20497;-67
2021/06/09 02:24:07;;;;;;;27.58;18.67;;;;;;;;;;4987635;28;20018;-67
2021/06/09 02:26:34;;;;;;;26.27;17.55;;;;;;;;;;4985744;28;20050;-67
2021/06/09 02:29:01;;;;;;;24.55;16.38;;;;;;;;;;4987083;28;20059;-67
2021/06/09 02:31:27;;;;;;;26.48;17.60;;;;;;;;;;4986016;28;20079;-66
2021/06/09 02:33:57;;;;;;;25.02;17.27;;;;;;;;;;4985835;28;20034;-66
2021/06/09 02:36:24;;;;;;;23.10;15.73;;;;;;;;;;4987301;28;20030;-67
2021/06/09 02:38:50;;;;;;;23.85;15.68;;;;;;;;;;4987498;28;20033;-67
2021/06/09 02:41:16;;;;;;;22.38;15.15;;;;;;;;;;4987220;28;20105;-66
2021/06/09 02:43:43;;;;;;;26.77;15.68;;;;;;;;;;4987850;28;20045;-67
2021/06/09 02:46:09;;;;;;;25.35;16.58;;;;;;;;;;4988761;28;20029;-67
2021/06/09 02:48:36;;;;;;;20.98;14.90;;;;;;;;;;4985797;28;20030;-67
2021/06/09 02:51:03;;;;;;;24.52;16.15;;;;;;;;;;4985972;28;20041;-67
2021/06/09 02:53:34;;;;;;;23.88;15.13;;;;;;;;;;4986312;28;20036;-67
2021/06/09 02:56:12;;;;;;;19.17;14.32;;;;;;;;;;4986542;28;20034;-67
2021/06/09 02:58:38;;;;;;;22.05;14.27;;;;;;;;;;4985697;28;20034;-67
2021/06/09 03:01:11;;;;;;;19.25;14.00;;;;;;;;;;4986853;28;20530;-67
2021/06/09 03:03:43;;;;;;;23.77;16.10;;;;;;;;;;4985921;28;20034;-67
2021/06/09 03:06:09;;;;;;;;;;;;;;;;;;4987781;28;20030;-67
2021/06/09 03:08:37;;;;;;;20.98;14.02;;;;;;;;;;4986323;28;19964;-66
2021/06/09 03:11:22;;;;;;;21.30;14.02;;;;;;;;;;4987071;28;20155;-67
2021/06/09 03:16:27;;;;;;;19.75;14.30;;;;;;;;;;4985270;28;20125;-67
2021/06/09 03:18:53;;;;;;;;;;;;;;;;;;4986216;28;20046;-67
2021/06/09 03:21:24;;;;;;;23.08;14.75;;;;;;;;;;4983151;28;19948;-67
2021/06/09 03:23:50;;;;;;;19.70;12.93;;;;;;;;;;4985927;28;20054;-67
2021/06/09 03:26:35;;;;;;;19.73;13.50;;;;;;;;;;4985624;28;20037;-67
2021/06/09 03:29:17;;;;;;;21.58;14.10;;;;;;;;;;4986887;28;20593;-67
2021/06/09 03:31:45;;;;;;;22.23;14.63;;;;;;;;;;4986528;28;20530;-66
2021/06/09 03:34:13;;;;;;;21.17;14.52;;;;;;;;;;4990218;28;20489;-66
2021/06/09 03:36:41;;;;;;;21.33;14.18;;;;;;;;;;4988567;28;20027;-66
2021/06/09 03:39:09;;;;;;;21.83;13.43;;;;;;;;;;4989876;28;20018;-67
2021/06/09 03:41:42;;;;;;;21.83;13.52;;;;;;;;;;4990132;28;20026;-66
2021/06/09 03:44:09;;;;;;;23.98;14.85;;;;;;;;;;4987923;28;20490;-67
2021/06/09 03:46:37;;;;;;;21.67;14.57;;;;;;;;;;4989206;28;20494;-66
2021/06/09 03:49:06;;;;;;;25.15;15.23;;;;;;;;;;4989992;28;20053;-67
2021/06/09 03:51:32;;;;;;;24.55;15.20;;;;;;;;;;4985340;28;20034;-67
2021/06/09 03:53:59;;;;;;;23.77;15.38;;;;;;;;;;4989472;28;20025;-67
2021/06/09 03:56:27;;;;;;;21.92;13.60;;;;;;;;;;4987588;28;20022;-67
2021/06/09 03:58:54;;;;;;;22.67;15.20;;;;;;;;;;4988516;28;20494;-66
2021/06/09 04:01:20;;;;;;;23.38;15.02;;;;;;;;;;4989161;28;20034;-67
2021/06/09 04:03:48;;;;;;;23.13;15.52;;;;;;;;;;4988401;28;20042;-67
2021/06/09 04:06:15;;;;;;;24.48;15.25;;;;;;;;;;4988197;28;20117;-67
2021/06/09 04:08:42;;;;;;;24.33;15.93;;;;;;;;;;4988269;28;20058;-67
2021/06/09 04:11:09;;;;;;;27.60;16.13;;;;;;;;;;4988434;28;20058;-67
2021/06/09 04:13:36;;;;;;;26.45;16.20;;;;;;;;;;4989013;28;20045;-67
2021/06/09 04:16:03;;;;;;;25.50;15.95;;;;;;;;;;4988456;28;20080;-66
2021/06/09 04:18:30;;;;;;;26.15;15.93;;;;;;;;;;4987954;28;20033;-67
2021/06/09 04:20:58;;;;;;;25.55;16.27;;;;;;;;;;4988242;28;20540;-66
2021/06/09 04:23:24;;;;;;;27.63;17.75;;;;;;;;;;4987166;28;20031;-66
2021/06/09 04:25:50;;;;;;;30.10;17.45;;;;;;;;;;4988697;28;20022;-66
2021/06/09 04:28:19;;;;;;;25.75;16.88;;;;;;;;;;4986593;28;20125;-66
2021/06/09 04:30:45;;;;;;;30.00;18.33;;;;;;;;;;4988905;28;20034;-67
2021/06/09 04:33:12;;;;;;;30.35;17.73;;;;;;;;;;4992429;28;20181;-67
2021/06/09 04:35:39;;;;;;;27.45;16.67;;;;;;;;;;4987678;28;20053;-67
2021/06/09 04:38:06;;;;;;;28.98;17.88;;;;;;;;;;4987407;28;20026;-67
2021/06/09 04:40:32;;;;;;;29.58;17.27;;;;;;;;;;4990673;28;20061;-66
2021/06/09 04:42:59;;;;;;;28.33;17.38;;;;;;;;;;4990499;28;20026;-67
2021/06/09 04:45:26;;;;;;;27.17;17.35;;;;;;;;;;4988996;28;20046;-67
2021/06/09 04:47:52;;;;;;;28.02;18.42;;;;;;;;;;4990527;28;20039;-67
2021/06/09 04:50:19;;;;;;;31.67;18.98;;;;;;;;;;4990245;28;20026;-67
2021/06/09 04:52:45;;;;;;;27.80;19.10;;;;;;;;;;4990641;28;20065;-67
2021/06/09 04:55:12;;;;;;;29.58;19.90;;;;;;;;;;4997267;28;20468;-67
2021/06/09 04:57:38;;;;;;;31.00;20.45;;;;;;;;;;4989110;28;20053;-67
2021/06/09 05:00:05;;;;;;;31.80;19.52;;;;;;;;;;4990522;28;20042;-67
2021/06/09 05:02:32;;;;;;;34.08;19.85;;;;;;;;;;4989935;28;20895;-67
2021/06/09 05:04:59;;;;;;;36.47;22.77;;;;;;;;;;4988427;28;20578;-67
2021/06/09 05:07:25;;;;;;;34.67;22.48;;;;;;;;;;4988448;28;20079;-67
2021/06/09 05:09:51;;;;;;;42.83;27.23;;;;;;;;;;4986861;28;20076;-67
2021/06/09 05:12:25;;;;;;;43.30;25.48;;;;;;;;;;4985823;28;20041;-67
2021/06/09 05:15:00;;;;;;;43.22;27.05;;;;;;;;;;4988963;28;20033;-67
2021/06/09 05:17:29;;;;;;;51.90;32.83;;;;;;;;;;4987949;28;20031;-67
2021/06/09 05:19:55;;;;;;;50.65;30.38;;;;;;;;;;4989713;28;20034;-67
2021/06/09 05:22:40;;;;;;;50.45;29.63;;;;;;;;;;4989588;28;20030;-67
2021/06/09 05:25:07;;;;;;;49.67;30.13;;;;;;;;;;4983412;28;20045;-67
2021/06/09 05:27:34;;;;;;;45.58;27.77;;;;;;;;;;4987755;28;20034;-68
2021/06/09 05:30:00;;;;;;;51.20;29.02;;;;;;;;;;4986544;28;20199;-67
2021/06/09 05:32:27;;;;;;;47.80;28.83;;;;;;;;;;4996341;28;20552;-67
2021/06/09 05:34:54;;;;;;;50.55;30.45;;;;;;;;;;4993102;28;20401;-67
2021/06/09 05:37:20;;;;;;;49.58;30.48;;;;;;;;;;4986619;28;20041;-67
2021/06/09 05:39:46;;;;;;;59.03;32.47;;;;;;;;;;4994046;28;20030;-67
2021/06/09 05:42:13;;;;;;;52.85;33.78;;;;;;;;;;4990497;28;20396;-68
2021/06/09 05:44:42;;;;;;;50.78;31.00;;;;;;;;;;4992063;28;20030;-68
2021/06/09 05:47:09;;;;;;;53.08;32.38;;;;;;;;;;4989685;28;20038;-68
2021/06/09 05:49:35;;;;;;;48.95;30.67;;;;;;;;;;4996777;28;20026;-68
2021/06/09 05:52:01;;;;;;;50.53;30.45;;;;;;;;;;4994094;28;20095;-67
2021/06/09 05:54:32;;;;;;;55.15;31.75;;;;;;;;;;4997549;28;20516;-67
2021/06/09 05:57:00;;;;;;;48.67;31.73;;;;;;;;;;4990005;28;20027;-67
2021/06/09 05:59:26;;;;;;;54.42;31.48;;;;;;;;;;4990227;28;20034;-67
2021/06/09 06:01:52;;;;;;;53.85;32.83;;;;;;;;;;4980343;28;20053;-68
2021/06/09 06:04:19;;;;;;;56.08;33.97;;;;;;;;;;4980551;28;20518;-67
2021/06/09 06:06:47;;;;;;;48.13;28.95;;;;;;;;;;4980588;28;20678;-67
2021/06/09 06:09:13;;;;;;;46.13;28.00;;;;;;;;;;4983332;28;20050;-67
2021/06/09 06:11:41;;;;;;;33.85;22.40;;;;;;;;;;4979728;28;20052;-67
2021/06/09 06:14:10;;;;;;;30.60;18.63;;;;;;;;;;4986509;28;20022;-67
2021/06/09 06:16:37;;;;;;;30.67;17.38;;;;;;;;;;4973835;28;20579;-68
2021/06/09 06:19:04;;;;;;;38.08;15.52;;;;;;;;;;4978836;28;20034;-67
2021/06/09 06:21:30;;;;;;;26.60;13.75;;;;;;;;;;4980045;28;20037;-67
2021/06/09 06:23:56;;;;;;;24.42;14.85;;;;;;;;;;4979939;28;20029;-67
2021/06/09 06:26:22;;;;;;;20.90;13.43;;;;;;;;;;4981500;28;20061;-67
2021/06/09 06:28:50;;;;;;;23.63;14.15;;;;;;;;;;4980594;28;20034;-67
2021/06/09 06:31:20;;;;;;;28.83;13.27;;;;;;;;;;4992166;28;20039;-68
2021/06/09 06:33:46;;;;;;;24.40;13.90;;;;;;;;;;4979450;28;20110;-67
2021/06/09 06:36:13;;;;;;;25.85;15.95;;;;;;;;;;4998989;28;20039;-67
2021/06/09 06:38:40;;;;;;;21.67;14.30;;;;;;;;;;5059045;28;20032;-67
2021/06/09 06:41:07;;;;;;;22.33;13.80;;;;;;;;;;5000572;28;20037;-67
2021/06/09 06:43:33;;;;;;;19.83;12.77;;;;;;;;;;4981641;28;20030;-67
2021/06/09 06:45:59;;;;;;;20.08;12.48;;;;;;;;;;4979971;28;20030;-67
2021/06/09 06:48:25;;;;;;;23.73;13.05;;;;;;;;;;4986625;28;20523;-67
2021/06/09 06:50:51;;;;;;;16.48;11.07;;;;;;;;;;4991707;28;20061;-67
2021/06/09 06:53:18;;;;;;;20.83;12.88;;;;;;;;;;4978013;28;20035;-67
2021/06/09 06:55:44;;;;;;;15.90;10.77;;;;;;;;;;4980369;28;20084;-67
2021/06/09 06:58:10;;;;;;;18.83;11.82;;;;;;;;;;4973635;28;20440;-67
2021/06/09 07:00:37;;;;;;;20.05;12.38;;;;;;;;;;4978311;28;20042;-66
2021/06/09 07:03:03;;;;;;;21.35;12.13;;;;;;;;;;4999550;28;20602;-66
2021/06/09 07:05:32;;;;;;;18.63;10.65;;;;;;;;;;4983672;28;20022;-67
2021/06/09 07:08:00;;;;;;;16.33;10.88;;;;;;;;;;4986548;28;20046;-66
2021/06/09 07:10:27;;;;;;;16.13;10.50;;;;;;;;;;4977290;28;20019;-67
2021/06/09 07:12:54;;;;;;;18.80;12.43;;;;;;;;;;4982012;28;20046;-66
2021/06/09 07:15:21;;;;;;;16.52;10.70;;;;;;;;;;4981240;28;20509;-66
2021/06/09 07:17:57;;;;;;;16.25;10.80;;;;;;;;;;4998156;28;20050;-67
2021/06/09 07:20:24;;;;;;;29.10;12.85;;;;;;;;;;4982282;28;20023;-68
2021/06/09 07:22:51;;;;;;;18.88;12.07;;;;;;;;;;4998481;28;20051;-66
2021/06/09 07:25:17;;;;;;;17.75;11.65;;;;;;;;;;4985399;28;20026;-67
2021/06/09 07:27:45;;;;;;;19.15;13.20;;;;;;;;;;4990797;28;20038;-68
2021/06/09 07:30:12;;;;;;;16.45;12.35;;;;;;;;;;4988331;28;20052;-67
2021/06/09 07:32:41;;;;;;;23.13;13.27;;;;;;;;;;5002206;28;20037;-67
2021/06/09 07:35:08;;;;;;;17.83;11.63;;;;;;;;;;4986068;28;20025;-67
2021/06/09 07:37:37;;;;;;;18.73;12.85;;;;;;;;;;4977588;28;20027;-67
2021/06/09 07:40:07;;;;;;;20.50;12.02;;;;;;;;;;4997139;28;20030;-66
2021/06/09 07:42:34;;;;;;;21.23;12.23;;;;;;;;;;4983620;28;20053;-67
2021/06/09 07:45:08;;;;;;;26.58;14.77;;;;;;;;;;4988220;28;20026;-66
2021/06/09 07:47:35;;;;;;;17.88;12.20;;;;;;;;;;4984378;28;20030;-67
2021/06/09 07:50:02;;;;;;;25.75;13.20;;;;;;;;;;4978642;28;20027;-67
2021/06/09 07:52:28;;;;;;;18.25;12.25;;;;;;;;;;4984980;28;20054;-67
2021/06/09 07:54:56;;;;;;;16.40;10.23;;;;;;;;;;4979913;28;20065;-66
2021/06/09 07:57:25;;;;;;;14.82;9.48;;;;;;;;;;4983102;28;20029;-67
2021/06/09 07:59:52;;;;;;;16.48;10.15;;;;;;;;;;4983156;28;20041;-67
2021/06/09 08:02:19;;;;;;;13.88;9.77;;;;;;;;;;4998647;28;20026;-66
2021/06/09 08:04:45;;;;;;;18.83;11.70;;;;;;;;;;5013286;28;20496;-67
2021/06/09 08:07:11;;;;;;;16.42;10.05;;;;;;;;;;5012940;28;20030;-67
2021/06/09 08:09:38;;;;;;;16.60;9.57;;;;;;;;;;4999456;28;20493;-67
2021/06/09 08:12:05;;;;;;;12.52;8.27;;;;;;;;;;4995109;28;20056;-66
2021/06/09 08:14:32;;;;;;;13.95;7.88;;;;;;;;;;5022695;28;20027;-67
2021/06/09 08:16:58;;;;;;;12.45;7.07;;;;;;;;;;4984010;28;20121;-66
2021/06/09 08:19:25;;;;;;;13.88;7.53;;;;;;;;;;5013525;28;20066;-67
2021/06/09 08:21:51;;;;;;;12.18;6.30;;;;;;;;;;4992314;28;20192;-66
2021/06/09 08:24:17;;;;;;;16.42;6.15;;;;;;;;;;5007015;28;20024;-67
2021/06/09 08:26:43;;;;;;;15.27;7.05;;;;;;;;;;4974243;28;20034;-66
2021/06/09 08:29:09;;;;;;;14.80;6.25;;;;;;;;;;4990102;28;20052;-66
2021/06/09 08:31:36;;;;;;;11.65;5.93;;;;;;;;;;5046577;28;20030;-67
2021/06/09 08:34:03;;;;;;;10.80;5.50;;;;;;;;;;5015002;28;20054;-67
2021/06/09 08:36:30;;;;;;;10.13;5.03;;;;;;;;;;4987507;28;20026;-67
2021/06/09 08:38:57;;;;;;;10.10;5.63;;;;;;;;;;4989729;28;20042;-66
2021/06/09 08:41:27;;;;;;;8.10;4.35;;;;;;;;;;4988056;28;20398;-67
2021/06/09 08:43:54;;;;;;;13.02;3.88;;;;;;;;;;4990225;28;20033;-67
2021/06/09 08:46:20;;;;;;;8.88;3.63;;;;;;;;;;4988895;28;20026;-66
2021/06/09 08:48:47;;;;;;;8.50;3.90;;;;;;;;;;5024534;28;20036;-66
2021/06/09 08:51:15;;;;;;;6.72;3.90;;;;;;;;;;5042208;28;20172;-66
2021/06/09 08:53:49;;;;;;;8.55;3.35;;;;;;;;;;4989743;28;20038;-66
2021/06/09 08:56:15;;;;;;;5.30;3.38;;;;;;;;;;5026827;28;20115;-66
2021/06/09 08:58:41;;;;;;;4.55;2.80;;;;;;;;;;4970408;28;20035;-68
2021/06/09 09:01:08;;;;;;;7.30;3.60;;;;;;;;;;4983835;28;20030;-66
2021/06/09 09:03:35;;;;;;;6.60;3.67;;;;;;;;;;4995225;28;20037;-67
2021/06/09 09:06:02;;;;;;;8.20;3.50;;;;;;;;;;4990661;28;20045;-67
2021/06/09 09:08:28;;;;;;;5.88;3.15;;;;;;;;;;4980807;28;20027;-67
2021/06/09 09:10:54;;;;;;;8.55;3.20;;;;;;;;;;4990628;28;20029;-66
2021/06/09 09:13:21;;;;;;;8.05;3.03;;;;;;;;;;4989872;28;20113;-66
2021/06/09 09:15:48;;;;;;;8.32;3.70;;;;;;;;;;4988290;28;20582;-66
2021/06/09 09:18:14;;;;;;;7.07;3.30;;;;;;;;;;4986464;28;20180;-66
2021/06/09 09:20:42;;;;;;;5.63;3.20;;;;;;;;;;4989355;28;20111;-67
2021/06/09 09:23:17;;;;;;;5.70;3.20;;;;;;;;;;4989063;28;20018;-67
2021/06/09 09:25:43;;;;;;;11.07;3.63;;;;;;;;;;4989264;28;20031;-71
2021/06/09 09:28:21;;;;;;;9.57;3.58;;;;;;;;;;5010972;28;20512;-67
2021/06/09 09:30:47;;;;;;;7.90;3.17;;;;;;;;;;4988252;28;20057;-67
2021/06/09 09:33:21;;;;;;;7.72;3.58;;;;;;;;;;5014699;28;20034;-67
2021/06/09 09:35:48;;;;;;;9.18;3.28;;;;;;;;;;4991086;28;20026;-66
2021/06/09 09:38:22;;;;;;;5.53;2.40;;;;;;;;;;4997377;28;20075;-67
2021/06/09 09:41:01;;;;;;;6.30;2.92;;;;;;;;;;4982017;28;20018;-67
2021/06/09 09:43:46;;;;;;;5.28;2.55;;;;;;;;;;4985344;28;20052;-67
2021/06/09 09:46:22;;;;;;;5.28;2.88;;;;;;;;;;4992259;28;20061;-66
2021/06/09 09:48:59;;;;;;;7.57;3.45;;;;;;;;;;5006544;28;20075;-66
2021/06/09 09:51:26;;;;;;;8.30;3.95;;;;;;;;;;5011541;28;20493;-66
2021/06/09 09:54:00;;;;;;;5.90;2.80;;;;;;;;;;4994861;28;20030;-69
2021/06/09 09:56:27;;;;;;;6.65;2.95;;;;;;;;;;4988703;28;20041;-68
2021/06/09 09:59:05;;;;;;;6.80;2.80;;;;;;;;;;4988770;28;20037;-67
2021/06/09 10:01:45;;;;;;;6.65;3.40;;;;;;;;;;4999642;28;20047;-70
2021/06/09 10:04:15;;;;;;;5.47;2.92;;;;;;;;;;4998795;28;20109;-69
2021/06/09 10:06:45;;;;;;;6.75;2.90;;;;;;;;;;4980925;28;20264;-69
2021/06/09 10:09:19;;;;;;;5.30;2.92;;;;;;;;;;4991319;28;20022;-71
2021/06/09 10:11:49;;;;;;;5.22;3.38;;;;;;;;;;4991130;28;20413;-67
2021/06/09 10:14:22;;;;;;;8.32;3.08;;;;;;;;;;5065687;28;20048;-66
2021/06/09 10:16:52;;;;;;;6.10;2.88;;;;;;;;;;5007744;28;20103;-67
2021/06/09 10:19:18;;;;;;;5.50;2.67;;;;;;;;;;4985284;28;20033;-66
2021/06/09 10:21:47;;;;;;;6.10;2.53;;;;;;;;;;4989291;28;20497;-67
2021/06/09 10:24:13;;;;;;;9.20;2.88;;;;;;;;;;5014323;28;20016;-67
2021/06/09 10:26:41;;;;;;;5.95;3.10;;;;;;;;;;4981614;28;20057;-67
2021/06/09 10:29:13;;;;;;;7.13;2.80;;;;;;;;;;5000773;28;20558;-68
2021/06/09 10:32:05;;;;;;;5.88;2.60;;;;;;;;;;4994261;28;20204;-68
2021/06/09 10:34:35;;;;;;;7.00;3.47;;;;;;;;;;4982569;28;20041;-67
2021/06/09 10:37:02;;;;;;;13.15;2.85;;;;;;;;;;4979499;28;20534;-67
2021/06/09 10:39:29;;;;;;;4.82;2.90;;;;;;;;;;5007341;28;20020;-67
2021/06/09 10:41:56;;;;;;;4.57;2.50;;;;;;;;;;4999022;28;20053;-67
2021/06/09 10:44:24;;;;;;;4.63;2.72;;;;;;;;;;4987975;28;20068;-66
2021/06/09 10:46:53;;;;;;;5.47;2.75;;;;;;;;;;4980192;28;20282;-66
2021/06/09 10:49:21;;;;;;;6.10;2.72;;;;;;;;;;4998517;28;20043;-67
2021/06/09 10:51:48;;;;;;;7.13;2.60;;;;;;;;;;4984689;28;20041;-66
2021/06/09 10:54:15;;;;;;;8.02;3.05;;;;;;;;;;4986885;28;20510;-67
2021/06/09 10:56:42;;;;;;;8.15;2.72;;;;;;;;;;4998701;28;20058;-67
2021/06/09 10:59:10;;;;;;;5.90;2.70;;;;;;;;;;5019671;28;20087;-67
2021/06/09 11:01:36;;;;;;;5.68;2.60;;;;;;;;;;4994243;28;20046;-67
2021/06/09 11:04:03;;;;;;;5.18;2.50;;;;;;;;;;4978653;28;20108;-67
2021/06/09 11:06:35;;;;;;;7.25;2.35;;;;;;;;;;5033761;28;20559;-67
2021/06/09 11:09:01;;;;;;;;;;;;;;;;;;4992959;28;20040;-66
2021/06/09 11:11:27;;;;;;;6.65;2.63;;;;;;;;;;4991238;28;20004;-67
2021/06/09 11:13:53;;;;;;;6.60;2.78;;;;;;;;;;4981266;28;20029;-67
2021/06/09 11:16:19;;;;;;;5.55;2.65;;;;;;;;;;4986239;28;20572;-67
2021/06/09 11:18:46;;;;;;;5.85;2.58;;;;;;;;;;4988067;28;20096;-66
2021/06/09 11:21:15;;;;;;;7.72;2.33;;;;;;;;;;4983370;28;20072;-65
2021/06/09 11:23:42;;;;;;;6.38;3.05;;;;;;;;;;4982115;28;20039;-66
2021/06/09 11:26:24;;;;;;;5.40;2.22;;;;;;;;;;4981117;28;20041;-67
2021/06/09 11:28:50;;;;;;;;;;;;;;;;;;4982563;28;20528;-67
2021/06/09 11:31:23;;;;;;;4.90;2.28;;;;;;;;;;4985444;28;20500;-67
2021/06/09 11:33:52;;;;;;;5.65;2.30;;;;;;;;;;4982715;28;20042;-67
2021/06/09 11:36:19;;;;;;;6.40;2.30;;;;;;;;;;4987287;28;20512;-66
2021/06/09 11:39:06;;;;;;;5.50;2.17;;;;;;;;;;4990019;28;20034;-67
2021/06/09 11:41:32;;;;;;;5.03;2.40;;;;;;;;;;4986184;28;20027;-66
2021/06/09 11:43:58;;;;;;;5.57;2.40;;;;;;;;;;4982148;28;20049;-67
2021/06/09 11:46:24;;;;;;;4.70;2.17;;;;;;;;;;4992180;28;20026;-67
2021/06/09 11:48:59;;;;;;;7.15;2.40;;;;;;;;;;4992760;28;20027;-67
2021/06/09 11:51:52;;;;;;;5.53;2.30;;;;;;;;;;4985777;28;20035;-67
2021/06/09 11:54:29;;;;;;;4.50;1.92;;;;;;;;;;5033495;28;20044;-69
2021/06/09 11:56:57;;;;;;;5.13;2.03;;;;;;;;;;4981344;28;20038;-66
2021/06/09 11:59:27;;;;;;;5.15;2.10;;;;;;;;;;4994935;28;20034;-67
2021/06/09 12:01:54;;;;;;;5.95;1.88;;;;;;;;;;5028214;28;20066;-67
2021/06/09 12:04:26;;;;;;;4.55;2.00;;;;;;;;;;4999112;28;20083;-66
2021/06/09 12:06:52;;;;;;;8.80;2.20;;;;;;;;;;4997451;28;20026;-67
2021/06/09 12:09:19;;;;;;;5.25;2.03;;;;;;;;;;4996454;28;20041;-66
2021/06/09 12:11:46;;;;;;;6.40;1.88;;;;;;;;;;4991890;28;20034;-66
2021/06/09 12:14:23;;;;;;;8.43;2.40;;;;;;;;;;4989815;28;20493;-66
2021/06/09 12:16:51;;;;;;;5.10;1.63;;;;;;;;;;4996901;28;20034;-66
2021/06/09 12:19:28;;;;;;;5.82;2.45;;;;;;;;;;5009548;28;20029;-66
2021/06/09 12:21:54;;;;;;;5.82;2.55;;;;;;;;;;5027472;28;20022;-67
2021/06/09 12:24:20;;;;;;;4.20;2.22;;;;;;;;;;5042362;28;20024;-68
2021/06/09 12:26:51;;;;;;;4.82;1.92;;;;;;;;;;5027724;28;20177;-69
2021/06/09 12:29:22;;;;;;;6.55;2.20;;;;;;;;;;5041941;28;20037;-66
2021/06/09 12:31:48;;;;;;;;;;;;;;;;;;5003677;28;20034;-67
2021/06/09 12:34:40;;;;;;;4.85;2.00;;;;;;;;;;5013889;28;19909;-66
2021/06/09 12:37:08;;;;;;;5.03;2.30;;;;;;;;;;4993112;28;20204;-68
2021/06/09 12:39:34;;;;;;;8.23;2.15;;;;;;;;;;4990275;28;20023;-67
2021/06/09 12:42:01;;;;;;;4.85;2.25;;;;;;;;;;5005751;28;20115;-67
2021/06/09 12:44:28;;;;;;;4.15;1.88;;;;;;;;;;5010444;28;20026;-67
2021/06/09 12:46:56;;;;;;;6.07;2.60;;;;;;;;;;5022979;28;20284;-67
2021/06/09 12:49:23;;;;;;;5.57;2.08;;;;;;;;;;5000149;28;20041;-66
2021/06/09 12:52:08;;;;;;;5.25;2.15;;;;;;;;;;4989718;28;20101;-66
2021/06/09 12:54:34;;;;;;;3.03;1.63;;;;;;;;;;4986330;28;20792;-66
2021/06/09 12:57:00;;;;;;;4.22;2.08;;;;;;;;;;4988519;28;20034;-66
2021/06/09 12:59:30;;;;;;;5.30;1.77;;;;;;;;;;4994538;28;20057;-69
2021/06/09 13:01:57;;;;;;;4.28;1.90;;;;;;;;;;4989067;28;20034;-66
2021/06/09 13:04:33;;;;;;;4.57;2.25;;;;;;;;;;4993939;28;20034;-67
2021/06/09 13:06:59;;;;;;;4.15;1.70;;;;;;;;;;4989157;28;20054;-66
2021/06/09 13:09:25;;;;;;;5.20;2.10;;;;;;;;;;4989978;28;20038;-66
2021/06/09 13:11:52;;;;;;;4.05;1.80;;;;;;;;;;4989481;28;20411;-66
2021/06/09 13:14:28;;;;;;;4.53;2.10;;;;;;;;;;4996439;28;20100;-66
2021/06/09 13:17:00;;;;;;;5.65;2.17;;;;;;;;;;4984695;28;20309;-65
2021/06/09 13:19:26;;;;;;;5.18;1.83;;;;;;;;;;4997378;28;20046;-66
2021/06/09 13:21:53;;;;;;;3.53;2.00;;;;;;;;;;4991115;28;20022;-65
2021/06/09 13:24:19;;;;;;;5.22;2.17;;;;;;;;;;4991042;28;20015;-66
2021/06/09 13:26:47;;;;;;;4.35;2.13;;;;;;;;;;4987743;28;20476;-65
2021/06/09 13:29:14;;;;;;;4.40;2.00;;;;;;;;;;4988295;28;20715;-65
2021/06/09 13:31:42;;;;;;;8.48;2.58;;;;;;;;;;5022096;28;20501;-66
2021/06/09 13:34:08;;;;;;;5.82;1.85;;;;;;;;;;5037959;28;20039;-66
2021/06/09 13:36:35;;;;;;;6.50;2.03;;;;;;;;;;4984986;28;20019;-66
2021/06/09 13:39:20;;;;;;;5.28;2.08;;;;;;;;;;5002020;28;20034;-70
2021/06/09 13:41:46;;;;;;;3.63;1.85;;;;;;;;;;4988667;28;20075;-67
2021/06/09 13:44:12;;;;;;;4.00;1.73;;;;;;;;;;4999825;28;20022;-67
2021/06/09 13:46:57;;;;;;;4.72;2.00;;;;;;;;;;4985744;28;20207;-67
2021/06/09 13:49:27;;;;;;;4.55;2.00;;;;;;;;;;4994393;28;20058;-69
2021/06/09 13:51:53;;;;;;;7.15;2.38;;;;;;;;;;5001074;28;20027;-67
2021/06/09 13:54:26;;;;;;;5.55;2.03;;;;;;;;;;4995558;28;20104;-67
2021/06/09 13:56:52;;;;;;;3.90;2.00;;;;;;;;;;4989290;28;20206;-66
2021/06/09 13:59:19;;;;;;;4.82;2.00;;;;;;;;;;4992063;28;20033;-65
2021/06/09 14:01:46;;;;;;;5.00;2.42;;;;;;;;;;4988349;28;20497;-66
2021/06/09 14:04:15;;;;;;;3.30;1.90;;;;;;;;;;4992543;28;20018;-66
2021/06/09 14:06:41;;;;;;;5.35;1.92;;;;;;;;;;4988919;28;20034;-66
2021/06/09 14:09:09;;;;;;;3.42;1.70;;;;;;;;;;4996141;28;20032;-66
2021/06/09 14:11:54;;;;;;;5.18;1.85;;;;;;;;;;4988920;28;20109;-66
2021/06/09 14:14:24;;;;;;;5.75;2.00;;;;;;;;;;4994503;28;20562;-66
2021/06/09 14:17:11;;;;;;;6.72;2.58;;;;;;;;;;4983946;28;20038;-66
2021/06/09 14:19:38;;;;;;;7.00;2.35;;;;;;;;;;4979833;28;20031;-66
2021/06/09 14:22:05;;;;;;;5.30;2.15;;;;;;;;;;4991030;28;20023;-66
2021/06/09 14:24:31;;;;;;;3.45;1.83;;;;;;;;;;4980657;28;20022;-67
2021/06/09 14:26:58;;;;;;;4.50;2.30;;;;;;;;;;4985831;28;20498;-65
2021/06/09 14:29:24;;;;;;;4.60;2.15;;;;;;;;;;5004441;28;20094;-65
2021/06/09 14:31:50;;;;;;;5.90;2.25;;;;;;;;;;4986154;28;20035;-64
2021/06/09 14:34:25;;;;;;;7.53;2.92;;;;;;;;;;5001821;28;20500;-65
2021/06/09 14:36:53;;;;;;;6.35;2.35;;;;;;;;;;5006964;28;20026;-65
2021/06/09 14:39:20;;;;;;;6.65;2.83;;;;;;;;;;4997522;28;20030;-65